Nearby METAR Reports

 

KIAG - Niagara Falls, New York, USA
Distance from station: W 12mi, 20km
Updated: 06/22/2017 8:53pm
Clear
Clear
 Wind from SW
Wind: SW 10 mph , 17 km/h
Temperature: 79°F , 26°C
Dew Point: 63°F , 17°C
Humidity: 58%
Barometer: 1009.5 hPa
Clouds: Clear
Visibility: 10 miles , 16 km
2017/06/23 00:53 KIAG 230053Z 22009KT 10SM CLR 26/17 A2981 RMK AO2 SLP092 T02610167
KBUF - Buffalo/Cheektow, New York, USA
Distance from station: S 13mi, 21km
Updated: 06/22/2017 8:54pm
Mostly cloudy
Mostly cloudy
 Wind from SW
Wind: SW 9 mph , 15 km/h
Temperature: 75°F , 24°C
Dew Point: 66°F , 19°C
Humidity: 74%
Barometer: 1010.5 hPa
Clouds: Mostly cloudy
Visibility: 10 miles , 16 km
Cloud details: Mostly cloudy 14000 ft
Mostly cloudy 21000 ft
Mostly cloudy 28000 ft
2017/06/23 00:54 KBUF 230054Z 22008KT 10SM BKN140 BKN210 BKN280 24/19 A2984 RMK AO2 SLP100 T02390189
 
KROC - Rochester, New York, USA
Distance from station: E 51mi, 82km
Updated: 06/22/2017 8:54pm
Overcast
Overcast
 Wind from SW
Wind: SW 7 mph , 11 km/h
Temperature: 77°F , 25°C
Dew Point: 68°F , 20°C
Humidity: 74%
Barometer: 1010.2 hPa
Clouds: Overcast
Visibility: 10 miles , 16 km
Cloud details: Few Clouds 6000 ft
Mostly cloudy 13000 ft
Overcast 18000 ft
2017/06/23 00:54 KROC 230054Z 23006KT 10SM FEW060 BKN130 OVC180 25/20 A2983 RMK AO2 SLP100 T02500200
CYSN - St. Catharines A, Ontario, Canada
Distance from station: WNW 25mi, 40km
Updated: 06/22/2017 9:00pm
Mostly cloudy
Mostly cloudy
 Wind from SSW
Wind: SSW 13 mph , 20 km/h
Temperature: 77°F , 25°C
Dew Point: 66°F , 19°C
Humidity: 69%
Barometer: 1008.5 hPa
Clouds: Mostly cloudy
Visibility: 15 miles , 24 km
Cloud details: Mostly cloudy 16000 ft
Mostly cloudy 25000 ft
2017/06/23 01:00 CYSN 230100Z 21011KT 15SM BKN160 BKN250 25/19 A2978 RMK AC6CI1 LAST STFD OBS/NEXT 231100 UTC SLP086 DENSITY ALT 1800FT
 
KOLE - Olean, New York, USA
Distance from station: SSE 63mi, 102km
Updated: 06/22/2017 9:15pm
Clear
Clear
 Wind from SSW
Wind: SSW 5 mph , 7 km/h
Temperature: 70°F , 21°C
Dew Point: 68°F , 20°C
Humidity: 94%
Barometer: 1014.2 hPa
Clouds: Clear
Visibility: 10 miles , 16 km
2017/06/23 01:15 KOLE 230115Z AUTO 21004KT 10SM CLR 21/20 A2995 RMK AO2
KJHW - Jamestown, New York, USA
Distance from station: SSW 74mi, 119km
Updated: 06/22/2017 9:15pm
Mostly cloudy
Mostly cloudy
 Wind from S
Wind: S 7 mph , 11 km/h
Temperature: 73°F , 23°C
Dew Point: 66°F , 19°C
Humidity: 78%
Barometer: 1012.9 hPa
Clouds: Mostly cloudy
Visibility: 10 miles , 16 km
Cloud details: Few Clouds 2800 ft
Mostly cloudy 12000 ft
2017/06/23 01:15 KJHW 230115Z AUTO 19006KT 10SM FEW028 BKN120 23/19 A2991 RMK AO1
 
CWWZ - Port Weller (mar, Ontario, Canada
Distance from station: WNW 28mi, 45km
Updated: 06/22/2017 9:00pm

 Wind from SSW
Wind: SSW 9 mph , 15 km/h
Temperature: 77°F , 25°C
Dew Point: 64°F , 18°C
Humidity: 65%
2017/06/23 01:00 CWWZ 230100Z AUTO 21008KT 25/18 RMK AO1 SLP083 T02460176 56015
CWPC - Port Colborne(Au, Ontario, Canada
Distance from station: WSW 33mi, 53km
Updated: 06/22/2017 9:00pm

 Wind from SSW
Wind: SSW 6 mph , 9 km/h
Temperature: 70°F , 21°C
Dew Point: 64°F , 18°C
Humidity: 83%
2017/06/23 01:00 CWPC 230100Z AUTO 20005KT 21/18 RMK AO1 SLP103 T02090183 56008
 
CXVN - Vineland (au8), Ontario, Canada
Distance from station: W 36mi, 58km
Updated: 06/22/2017 9:00pm

 Wind from SSW
Wind: SSW 9 mph , 15 km/h
Temperature: 77°F , 25°C
Dew Point: 64°F , 18°C
Humidity: 65%
2017/06/23 01:00 CXVN 230100Z AUTO 20008KT 25/18 RMK AO1 SLP075 T02480175 56013
CYTZ - Toronto Il Vor, Ontario, Canada
Distance from station: NW 50mi, 81km
Updated: 06/22/2017 9:00pm
Overcast
Overcast
 Wind from E
Wind: E 10 mph , 17 km/h
Temperature: 64°F , 18°C
Dew Point: 61°F , 16°C
Humidity: 88%
Barometer: 1008.1 hPa
Clouds: Overcast
Visibility: 9 miles , 14 km
Cloud details: Overcast 15000 ft
2017/06/23 01:00 CYTZ 230100Z AUTO 08009KT 9SM OVC150 18/16 A2977 RMK SLP084 DENSITY ALT 800FT
 
CXTO - Toronto City, Ontario, Canada
Distance from station: NW 52mi, 84km
Updated: 06/22/2017 9:00pm

 
Temperature: 68°F , 20°C
Dew Point: 59°F , 15°C
Humidity: 73%
2017/06/23 01:00 CXTO 230100Z AUTO 20/15 RMK AO1 SLP083 T01960154 58015
KDKK - Dunkirk, New York, USA
Distance from station: SW 52mi, 84km
Updated: 06/22/2017 8:53pm
Clear
Clear
 Wind from SSW
Wind: SSW 7 mph , 11 km/h
Temperature: 79°F , 26°C
Dew Point: 68°F , 20°C
Humidity: 70%
Barometer: 1010.5 hPa
Clouds: Clear
Visibility: 10 miles , 16 km
2017/06/23 00:53 KDKK 230053Z AUTO 20006KT 10SM CLR 26/20 A2984 RMK AO2 SLP100 T02560200 $
 
CYOO - Oshawa, Ontario, Canada
Distance from station: N 56mi, 90km
Updated: 06/22/2017 9:00pm
Overcast
Overcast
 Wind from ESE
Wind: ESE 5 mph , 7 km/h
Temperature: 64°F , 18°C
Dew Point: 55°F , 13°C
Humidity: 73%
Barometer: 1008.8 hPa
Clouds: Overcast
Visibility: 9 miles , 14 km
Cloud details: Mostly cloudy 13000 ft
Overcast 15000 ft
2017/06/23 01:00 CYOO 230100Z AUTO 11004KT 9SM BKN130 OVC150 18/13 A2979 RMK SLP091 DENSITY ALT 1000FT
CWWB - Burlington Piers, Ontario, Canada
Distance from station: WNW 56mi, 91km
Updated: 06/22/2017 9:00pm

 Wind from SSW
Wind: SSW 8 mph , 13 km/h
Temperature: 81°F , 27°C
Heat Index: 82°F , 28°C
Dew Point: 63°F , 17°C
Humidity: 54%
2017/06/23 01:00 CWWB 230100Z AUTO 21007KT 27/17 RMK AO1 SLP078 T02670169 56013
 
CYYZ - Toronto/Pearson, Ontario, Canada
Distance from station: NW 60mi, 96km
Updated: 06/22/2017 9:00pm
Overcast
Overcast
 Wind from SE
Wind: SE 6 mph , 9 km/h
Temperature: 68°F , 20°C
Dew Point: 61°F , 16°C
Humidity: 78%
Barometer: 1008.5 hPa
Clouds: Overcast
Visibility: 15 miles , 24 km
Cloud details: Mostly cloudy 15000 ft
Overcast 25000 ft
2017/06/23 01:00 CYYZ 230100Z 13005KT 15SM BKN150 OVC250 20/16 A2978 RMK AC6CI2 SLP084 DENSITY ALT 1500FT
CYKZ - Toronto Buttonvi, Ontario, Canada
Distance from station: NW 62mi, 99km
Updated: 06/22/2017 9:00pm
Overcast
Overcast
 Wind from E
Wind: E 5 mph , 7 km/h
Temperature: 64°F , 18°C
Dew Point: 59°F , 15°C
Humidity: 83%
Barometer: 1008.8 hPa
Clouds: Overcast
Visibility: 15 miles , 24 km
Cloud details: Mostly cloudy 13000 ft
Overcast 24000 ft
2017/06/23 01:00 CYKZ 230100Z 09004KT 15SM BKN130 OVC240 18/15 A2979 RMK AC7CI1 SLP089 DENSITY ALT 1400FT
 
CXHM - Hamilton Rbg Cs, Ontario, Canada
Distance from station: W 62mi, 100km
Updated: 06/22/2017 9:00pm

 Wind from WSW
Wind: WSW 3 mph , 6 km/h
Temperature: 77°F , 25°C
Dew Point: 66°F , 19°C
Humidity: 69%
2017/06/23 01:00 CXHM 230100Z AUTO 25003KT 25/19 RMK AO1 SLP073 T02530188 56012
KDSV - Dansville, New York, USA
Distance from station: SE 62mi, 100km
Updated: 06/22/2017 8:54pm
Clear
Clear
 Wind from SE
Wind: SE 6 mph , 9 km/h
Temperature: 77°F , 25°C
Dew Point: 66°F , 19°C
Humidity: 69%
Barometer: 1011.2 hPa
Clouds: Clear
Visibility: 10 miles , 16 km
2017/06/23 00:54 KDSV 230054Z AUTO 13005KT 10SM CLR 25/19 A2986 RMK AO2 SLP116 T02500189
 
CYHM - Hamilton Airport, Ontario, Canada
Distance from station: W 63mi, 101km
Updated: 06/22/2017 9:00pm
Mostly cloudy
Mostly cloudy
 Wind from SSW
Wind: SSW 13 mph , 20 km/h
Temperature: 75°F , 24°C
Dew Point: 64°F , 18°C
Humidity: 69%
Barometer: 1009.1 hPa
Clouds: Mostly cloudy
Visibility: 15 miles , 24 km
Cloud details: Few Clouds 2500 ft
Mostly cloudy 18000 ft
Mostly cloudy 25000 ft
2017/06/23 01:00 CYHM 230100Z 20011KT 15SM FEW025 BKN180 BKN250 24/18 A2980 RMK CU1AC6CI1 CU TR SLP091 DENSITY ALT 2200FT
CWNC - Cobourg (mars), Ontario, Canada
Distance from station: NNE 63mi, 102km
Updated: 06/22/2017 9:00pm

 Wind from E
Wind: E 5 mph , 7 km/h
Temperature: 64°F , 18°C
Dew Point: 55°F , 13°C
Humidity: 73%
2017/06/23 01:00 CWNC 230100Z AUTO 09004KT 18/13 RMK AO1 SLP085 T01760126 57017